Time;durP1;ratioP1;P1;durP2;ratioP2;P2;SDS_P1;SDS_P2;PMS_P1;PMS_P2;Temp;Humidity;BMP_temperature;BMP_pressure;BME280_temperature;BME280_humidity;BME280_pressure;Samples;Min_cycle;Max_cycle;Signal;HPM_P1;HPM_P2
2024/03/28 00:01:07;;;;;;;2.95;1.52;;;9.50;99.90;;;;;;10104161;28;20075;-67
2024/03/28 00:05:58;;;;;;;2.13;1.58;;;9.50;99.90;;;;;;10121093;28;20780;-66
2024/03/28 00:10:50;;;;;;;1.75;1.42;;;9.40;99.90;;;;;;10118997;28;20029;-67
2024/03/28 00:15:41;;;;;;;3.30;1.70;;;9.50;99.90;;;;;;10118527;28;20040;-67
2024/03/28 00:20:32;;;;;;;2.65;1.67;;;9.40;99.90;;;;;;10111952;28;20032;-66
2024/03/28 00:25:23;;;;;;;2.72;1.80;;;9.30;99.90;;;;;;10097086;28;20665;-67
2024/03/28 00:30:14;;;;;;;2.72;1.52;;;9.40;99.90;;;;;;10126668;28;20038;-67
2024/03/28 00:35:05;;;;;;;2.92;1.70;;;9.30;99.90;;;;;;10124011;28;20142;-68
2024/03/28 00:39:56;;;;;;;3.45;1.55;;;9.30;99.90;;;;;;10112320;28;20028;-67
2024/03/28 00:44:46;;;;;;;2.45;1.55;;;9.30;99.90;;;;;;10107960;28;20020;-67
2024/03/28 00:49:37;;;;;;;2.65;1.60;;;9.30;99.90;;;;;;10108526;28;20111;-67
2024/03/28 00:54:28;;;;;;;3.03;2.00;;;9.30;99.90;;;;;;10102137;28;20032;-67
2024/03/28 00:59:18;;;;;;;3.55;1.70;;;9.10;99.90;;;;;;10123529;28;20033;-66
2024/03/28 01:04:09;;;;;;;2.70;1.83;;;9.20;99.90;;;;;;10115996;28;20044;-67
2024/03/28 01:08:59;;;;;;;3.17;1.63;;;9.10;99.90;;;;;;10093747;28;20041;-67
2024/03/28 01:13:50;;;;;;;4.43;1.83;;;9.20;99.90;;;;;;10103677;28;20025;-66
2024/03/28 01:18:41;;;;;;;3.28;2.28;;;9.10;99.90;;;;;;10096726;28;20159;-67
2024/03/28 01:23:31;;;;;;;2.85;1.67;;;9.10;99.90;;;;;;10110553;28;20025;-66
2024/03/28 01:28:22;;;;;;;2.65;1.95;;;9.10;99.90;;;;;;10124603;28;20138;-66
2024/03/28 01:33:12;;;;;;;3.58;2.08;;;9.20;99.90;;;;;;10101118;28;20047;-66
2024/03/28 01:38:03;;;;;;;1.77;1.52;;;9.10;99.90;;;;;;10104041;28;20147;-66
2024/03/28 01:43:04;;;;;;;2.70;1.73;;;9.10;99.90;;;;;;10097421;28;20059;-66
2024/03/28 01:47:55;;;;;;;2.88;1.80;;;9.00;99.90;;;;;;10100090;28;20033;-66
2024/03/28 01:52:46;;;;;;;2.88;1.77;;;9.10;99.90;;;;;;10110234;28;20029;-66
2024/03/28 01:57:36;;;;;;;2.47;1.40;;;9.00;99.90;;;;;;10111319;28;20029;-66
2024/03/28 02:02:28;;;;;;;3.00;1.52;;;9.00;99.90;;;;;;10105839;28;20108;-66
2024/03/28 02:07:18;;;;;;;3.53;1.88;;;9.00;99.90;;;;;;10099727;28;20037;-66
2024/03/28 02:12:09;;;;;;;2.10;1.15;;;9.00;99.90;;;;;;10126713;28;20025;-66
2024/03/28 02:17:05;;;;;;;3.65;1.65;;;8.90;99.90;;;;;;10118763;28;20031;-68
2024/03/28 02:21:56;;;;;;;2.85;1.85;;;8.80;99.90;;;;;;10120207;28;20068;-66
2024/03/28 02:26:46;;;;;;;3.83;1.45;;;8.90;99.90;;;;;;10115078;28;20580;-67
2024/03/28 02:31:37;;;;;;;3.35;1.83;;;8.90;99.90;;;;;;10095834;28;20040;-66
2024/03/28 02:36:27;;;;;;;2.05;1.52;;;8.70;99.90;;;;;;10125418;28;20029;-68
2024/03/28 02:41:22;;;;;;;3.50;1.95;;;8.80;99.90;;;;;;10124310;28;20111;-67
2024/03/28 02:46:13;;;;;;;2.85;1.55;;;8.70;99.90;;;;;;10095073;28;20033;-67
2024/03/28 02:51:04;;;;;;;3.13;1.48;;;8.70;99.90;;;;;;10103677;28;20067;-66
2024/03/28 02:55:55;;;;;;;2.47;1.75;;;8.60;99.90;;;;;;10100299;28;20032;-67
2024/03/28 03:00:45;;;;;;;2.42;1.60;;;8.60;99.90;;;;;;10110174;28;20541;-67
2024/03/28 03:05:37;;;;;;;2.55;2.25;;;8.70;99.90;;;;;;10128673;28;20597;-66
2024/03/28 03:10:28;;;;;;;2.00;1.55;;;8.70;99.90;;;;;;10123148;28;20029;-67
2024/03/28 03:15:19;;;;;;;1.30;1.20;;;8.60;99.90;;;;;;10110029;28;20021;-67
2024/03/28 03:20:13;;;;;;;1.55;1.00;;;8.60;99.90;;;;;;10111748;28;20358;-69
2024/03/28 03:25:13;;;;;;;2.75;1.70;;;8.60;99.90;;;;;;10102291;28;20080;-67
2024/03/28 03:35:13;;;;;;;3.05;1.63;;;8.50;99.90;;;;;;10128504;28;20103;-68
2024/03/28 03:40:09;;;;;;;3.70;1.77;;;8.50;99.90;;;;;;10123969;28;20411;-67
2024/03/28 03:45:00;;;;;;;3.38;1.30;;;8.50;99.90;;;;;;10093648;28;20050;-67
2024/03/28 03:49:51;;;;;;;2.47;1.58;;;8.50;99.90;;;;;;10117837;28;20032;-67
2024/03/28 03:54:42;;;;;;;2.95;1.85;;;8.40;99.90;;;;;;10108230;28;20036;-67
2024/03/28 03:59:34;;;;;;;1.80;1.27;;;8.30;99.90;;;;;;10127045;28;20111;-67
2024/03/28 04:04:25;;;;;;;3.55;1.50;;;8.30;99.90;;;;;;10106113;28;20024;-67
2024/03/28 04:09:16;;;;;;;2.03;1.33;;;8.40;99.90;;;;;;10104617;28;20095;-69
2024/03/28 04:14:07;;;;;;;1.77;1.50;;;8.30;99.90;;;;;;10108936;28;20391;-67
2024/03/28 04:18:58;;;;;;;2.85;1.60;;;8.20;99.90;;;;;;10103013;28;20116;-67
2024/03/28 04:23:49;;;;;;;3.05;1.45;;;8.20;99.90;;;;;;10110035;28;20115;-67
2024/03/28 04:28:39;;;;;;;1.70;1.27;;;8.20;99.90;;;;;;10124567;28;20053;-68
2024/03/28 04:33:30;;;;;;;2.55;1.10;;;8.20;99.90;;;;;;10106138;28;20176;-68
2024/03/28 04:38:21;;;;;;;1.52;1.40;;;8.20;99.90;;;;;;10103294;28;20032;-68
2024/03/28 04:43:12;;;;;;;2.70;1.40;;;8.20;99.90;;;;;;10133604;28;20290;-68
2024/03/28 04:48:02;;;;;;;2.55;1.40;;;8.20;99.90;;;;;;10127619;28;20522;-68
2024/03/28 04:52:53;;;;;;;1.35;1.13;;;8.30;99.90;;;;;;10122965;28;20035;-68
2024/03/28 04:57:44;;;;;;;2.22;1.60;;;8.40;99.90;;;;;;10112721;28;20063;-67
2024/03/28 05:02:35;;;;;;;1.60;1.10;;;8.50;99.90;;;;;;10113482;28;20045;-70
2024/03/28 05:07:26;;;;;;;2.60;1.85;;;8.40;99.90;;;;;;10095593;28;20481;-66
2024/03/28 05:12:16;;;;;;;3.90;1.45;;;8.50;99.90;;;;;;10100132;28;20112;-67
2024/03/28 05:17:08;;;;;;;1.45;1.30;;;8.40;99.90;;;;;;10127287;28;20035;-67
2024/03/28 05:21:58;;;;;;;3.55;1.60;;;8.40;99.90;;;;;;10113199;28;20495;-66
2024/03/28 05:26:49;;;;;;;2.25;1.38;;;8.40;99.90;;;;;;10111636;28;20064;-66
2024/03/28 05:31:40;;;;;;;4.82;1.20;;;8.30;99.90;;;;;;10104332;28;20028;-67
2024/03/28 05:36:30;;;;;;;2.58;1.30;;;8.30;99.90;;;;;;10127304;28;20036;-67
2024/03/28 05:41:21;;;;;;;2.20;2.00;;;8.30;99.90;;;;;;10123279;28;20539;-67
2024/03/28 05:46:12;;;;;;;2.85;1.50;;;8.40;99.90;;;;;;10112620;28;20044;-68
2024/03/28 05:51:03;;;;;;;2.75;1.10;;;8.40;99.90;;;;;;10113689;28;20509;-67
2024/03/28 05:55:53;;;;;;;2.63;1.35;;;8.40;99.90;;;;;;10108829;28;20079;-67
2024/03/28 06:00:44;;;;;;;1.48;1.30;;;8.30;99.90;;;;;;10100605;28;20441;-67
2024/03/28 06:05:34;;;;;;;2.60;1.10;;;8.30;99.90;;;;;;10102856;28;20044;-67
2024/03/28 06:10:25;;;;;;;2.47;1.10;;;8.30;99.90;;;;;;10114872;28;20119;-67
2024/03/28 06:15:16;;;;;;;2.00;1.50;;;8.30;99.90;;;;;;10112395;28;20083;-67
2024/03/28 06:20:08;;;;;;;2.30;1.38;;;8.40;99.90;;;;;;10111825;28;20474;-67
2024/03/28 06:24:58;;;;;;;2.05;1.23;;;8.40;99.90;;;;;;10106418;28;20041;-66
2024/03/28 06:29:52;;;;;;;1.70;1.42;;;8.30;99.90;;;;;;10099333;28;20089;-68
2024/03/28 06:34:43;;;;;;;2.13;1.27;;;8.30;99.90;;;;;;10126607;28;20027;-68
2024/03/28 06:39:33;;;;;;;2.50;1.10;;;8.30;99.90;;;;;;10115585;28;20028;-67
2024/03/28 06:44:24;;;;;;;1.77;1.17;;;8.30;99.90;;;;;;10109390;28;20037;-66
2024/03/28 06:49:15;;;;;;;1.63;1.23;;;8.30;99.90;;;;;;10107615;28;20083;-65
2024/03/28 06:54:06;;;;;;;2.65;1.27;;;8.40;99.90;;;;;;10095581;28;20533;-67
2024/03/28 06:58:56;;;;;;;1.67;0.90;;;8.50;99.90;;;;;;10099460;28;20032;-68
2024/03/28 07:03:47;;;;;;;2.72;1.33;;;8.50;99.90;;;;;;10108165;28;20035;-66
2024/03/28 07:08:38;;;;;;;1.65;1.17;;;8.50;99.90;;;;;;10106041;28;20033;-67
2024/03/28 07:13:31;;;;;;;2.08;1.30;;;8.50;99.90;;;;;;10107563;28;20457;-67
2024/03/28 07:18:22;;;;;;;2.10;1.13;;;8.40;99.90;;;;;;10103188;28;20033;-67
2024/03/28 07:23:13;;;;;;;2.83;1.42;;;8.50;99.90;;;;;;10122367;28;20043;-66
2024/03/28 07:28:04;;;;;;;2.45;1.13;;;8.60;99.90;;;;;;10122494;28;20055;-66
2024/03/28 07:32:54;;;;;;;2.97;1.58;;;8.50;99.90;;;;;;10112596;28;20391;-65
2024/03/28 07:37:45;;;;;;;2.22;0.88;;;8.60;99.90;;;;;;10102956;28;20033;-65
2024/03/28 07:42:36;;;;;;;1.55;0.95;;;8.70;99.90;;;;;;10100216;28;20041;-65
2024/03/28 07:47:27;;;;;;;1.58;0.90;;;8.80;99.90;;;;;;10105541;28;20076;-68
2024/03/28 07:52:17;;;;;;;0.98;0.75;;;8.80;99.90;;;;;;10102067;28;20052;-66
2024/03/28 07:57:08;;;;;;;1.00;0.82;;;8.80;99.90;;;;;;10110559;28;20087;-67
2024/03/28 08:01:59;;;;;;;1.35;1.05;;;8.80;99.90;;;;;;10108962;28;20021;-65
2024/03/28 08:06:50;;;;;;;2.42;0.77;;;8.90;99.90;;;;;;10102220;28;20055;-65
2024/03/28 08:11:43;;;;;;;1.90;0.90;;;8.80;99.90;;;;;;10116505;28;20947;-66
2024/03/28 08:16:33;;;;;;;1.85;0.85;;;8.80;99.90;;;;;;10102073;28;20087;-65
2024/03/28 08:21:24;;;;;;;1.23;0.85;;;8.80;99.90;;;;;;10095798;28;20028;-64
2024/03/28 08:26:15;;;;;;;1.33;0.95;;;8.80;99.90;;;;;;10107135;28;20080;-65
2024/03/28 08:31:06;;;;;;;1.23;0.90;;;8.90;99.90;;;;;;10103620;28;20388;-67
2024/03/28 08:35:56;;;;;;;2.95;1.15;;;8.90;99.90;;;;;;10095959;28;20039;-65
2024/03/28 08:40:48;;;;;;;1.55;0.80;;;8.90;99.90;;;;;;10117311;28;20032;-67
2024/03/28 08:45:39;;;;;;;1.08;0.75;;;9.00;99.90;;;;;;10105879;28;20045;-65
2024/03/28 08:50:29;;;;;;;3.80;0.80;;;9.00;99.90;;;;;;10100854;28;20130;-68
2024/03/28 08:55:21;;;;;;;1.13;0.82;;;9.10;99.90;;;;;;10103486;28;20024;-67
2024/03/28 09:00:12;;;;;;;0.98;0.93;;;9.20;99.90;;;;;;10109554;28;20024;-66
2024/03/28 09:05:08;;;;;;;1.00;0.70;;;9.30;99.90;;;;;;10109357;28;20120;-66
2024/03/28 09:10:00;;;;;;;1.02;0.47;;;9.40;99.90;;;;;;10114578;28;20035;-67
2024/03/28 09:14:55;;;;;;;1.13;0.70;;;9.50;99.90;;;;;;10108785;28;20033;-66
2024/03/28 09:19:45;;;;;;;1.20;0.57;;;9.70;99.90;;;;;;10104415;28;20044;-66
2024/03/28 09:24:36;;;;;;;1.60;0.70;;;9.70;99.90;;;;;;10104674;28;20521;-67
2024/03/28 09:29:27;;;;;;;1.38;0.73;;;9.80;99.90;;;;;;10125899;28;20093;-66
2024/03/28 09:34:17;;;;;;;0.55;0.50;;;9.80;99.90;;;;;;10119432;28;20141;-67
2024/03/28 09:39:11;;;;;;;1.58;0.60;;;10.00;99.90;;;;;;10118887;28;20071;-65
2024/03/28 09:44:09;;;;;;;0.57;0.43;;;10.10;99.90;;;;;;10102398;28;20041;-65
2024/03/28 09:49:01;;;;;;;1.88;0.60;;;10.20;99.90;;;;;;10096368;28;20040;-65
2024/03/28 09:53:58;;;;;;;0.50;0.40;;;10.30;99.90;;;;;;10098601;28;20021;-65
2024/03/28 09:58:49;;;;;;;0.80;0.40;;;10.30;99.90;;;;;;10121607;28;20082;-65
2024/03/28 10:03:45;;;;;;;0.77;0.40;;;10.40;99.90;;;;;;10113207;28;20555;-65
2024/03/28 10:08:35;;;;;;;0.38;0.32;;;10.50;99.90;;;;;;10108224;28;20028;-64
2024/03/28 10:13:38;;;;;;;1.10;0.50;;;10.70;99.90;;;;;;10102727;28;20044;-65
2024/03/28 10:18:30;;;;;;;0.68;0.20;;;10.70;99.90;;;;;;10099866;28;20491;-65
2024/03/28 10:23:22;;;;;;;0.47;0.47;;;10.70;99.90;;;;;;10098744;28;20029;-64
2024/03/28 10:28:19;;;;;;;0.25;0.25;;;10.60;99.90;;;;;;10114155;28;20041;-67
2024/03/28 10:33:11;;;;;;;1.73;0.50;;;10.70;99.90;;;;;;10103133;28;20052;-65
2024/03/28 10:38:06;;;;;;;0.32;0.25;;;10.70;99.90;;;;;;10102077;28;20037;-65
2024/03/28 10:43:01;;;;;;;0.67;0.40;;;10.80;99.90;;;;;;10093675;28;20021;-65
2024/03/28 10:47:52;;;;;;;0.90;0.65;;;10.70;99.90;;;;;;10121066;28;20114;-66
2024/03/28 10:52:50;;;;;;;1.30;0.55;;;10.80;99.90;;;;;;10129702;28;20032;-67
2024/03/28 10:57:42;;;;;;;0.68;0.30;;;11.00;99.90;;;;;;10135188;28;20029;-65
2024/03/28 11:02:33;;;;;;;1.23;0.43;;;11.10;99.90;;;;;;10118252;28;20063;-65
2024/03/28 11:07:25;;;;;;;0.30;0.20;;;11.30;99.90;;;;;;10113056;28;20552;-69
2024/03/28 11:12:17;;;;;;;0.25;0.10;;;11.50;99.90;;;;;;10101131;28;20399;-66
2024/03/28 11:17:08;;;;;;;0.80;0.20;;;11.60;99.90;;;;;;10108558;28;20496;-65
2024/03/28 11:21:59;;;;;;;1.33;0.60;;;11.70;99.90;;;;;;10110218;28;20040;-66
2024/03/28 11:26:56;;;;;;;0.45;0.30;;;11.70;99.90;;;;;;10109563;28;20535;-68
2024/03/28 11:31:57;;;;;;;0.70;0.70;;;11.60;99.90;;;;;;10118779;28;20066;-66
2024/03/28 11:36:53;;;;;;;0.50;0.40;;;11.50;99.90;;;;;;10116764;28;20032;-67
2024/03/28 11:41:43;;;;;;;1.25;0.75;;;11.40;99.90;;;;;;10115548;28;20033;-68
2024/03/28 11:46:34;;;;;;;0.82;0.32;;;11.20;99.90;;;;;;10118129;28;20123;-65
2024/03/28 11:51:25;;;;;;;1.35;0.20;;;10.90;99.90;;;;;;10092084;28;20056;-67
2024/03/28 11:56:23;;;;;;;3.33;0.30;;;10.60;99.90;;;;;;10083574;28;20033;-66
2024/03/28 12:01:13;;;;;;;0.43;0.35;;;10.50;99.90;;;;;;10093761;28;20040;-69
2024/03/28 12:06:07;;;;;;;1.75;0.20;;;10.70;99.90;;;;;;10100384;28;20029;-68
2024/03/28 12:10:59;;;;;;;0.70;0.30;;;10.90;99.90;;;;;;10105605;28;20033;-68
2024/03/28 12:15:57;;;;;;;0.68;0.20;;;11.20;99.90;;;;;;10105094;28;20022;-69
2024/03/28 12:20:48;;;;;;;0.28;0.20;;;11.60;99.90;;;;;;10099141;28;20061;-67
2024/03/28 12:25:45;;;;;;;1.13;0.40;;;11.80;99.90;;;;;;10102309;28;20071;-67
2024/03/28 12:30:36;;;;;;;0.38;0.28;;;11.90;99.90;;;;;;10103425;28;20400;-68
2024/03/28 12:35:28;;;;;;;1.08;0.28;;;12.10;99.90;;;;;;10112595;28;20039;-66
2024/03/28 12:40:20;;;;;;;1.38;0.40;;;12.30;99.90;;;;;;10105973;28;20568;-66
2024/03/28 12:45:20;;;;;;;0.25;0.25;;;12.40;99.90;;;;;;10107164;28;20751;-68
2024/03/28 12:50:19;;;;;;;0.80;0.52;;;12.30;99.90;;;;;;10100997;28;20133;-66
2024/03/28 12:55:10;;;;;;;3.17;0.30;;;12.20;99.90;;;;;;10094607;28;20441;-68
2024/03/28 13:00:01;;;;;;;2.78;0.55;;;11.80;99.90;;;;;;10105282;28;20028;-67
2024/03/28 13:04:51;;;;;;;2.35;0.20;;;10.60;99.90;;;;;;10104248;28;20033;-68
2024/03/28 13:09:42;;;;;;;0.10;0.10;;;10.00;99.90;;;;;;10111546;28;20140;-66
2024/03/28 13:14:33;;;;;;;0.38;0.20;;;10.20;99.90;;;;;;10104091;28;20036;-65
2024/03/28 13:19:24;;;;;;;0.90;0.25;;;10.60;99.90;;;;;;10096775;28;20036;-65
2024/03/28 13:24:14;;;;;;;1.50;0.30;;;11.10;99.90;;;;;;10103491;28;20055;-67
2024/03/28 13:29:05;;;;;;;0.40;0.20;;;11.50;99.90;;;;;;10111584;28;20059;-64
2024/03/28 13:33:56;;;;;;;1.17;0.30;;;11.80;99.90;;;;;;10106810;28;20044;-67
2024/03/28 13:38:46;;;;;;;1.27;0.25;;;12.20;99.90;;;;;;10105793;28;20021;-67
2024/03/28 13:43:37;;;;;;;0.50;0.22;;;12.40;99.90;;;;;;10099794;28;20075;-65
2024/03/28 13:48:32;;;;;;;0.38;0.20;;;12.30;99.90;;;;;;10093334;28;20041;-69
2024/03/28 13:53:23;;;;;;;1.10;0.40;;;12.20;99.90;;;;;;10114575;28;20066;-69
2024/03/28 13:58:13;;;;;;;1.65;0.50;;;12.10;99.90;;;;;;10108913;28;21263;-68
2024/03/28 14:03:04;;;;;;;1.13;0.38;;;12.10;99.90;;;;;;10108115;28;20116;-68
2024/03/28 14:07:55;;;;;;;0.77;0.40;;;12.60;99.90;;;;;;10100540;28;20060;-65
2024/03/28 14:12:45;;;;;;;0.52;0.52;;;13.20;99.90;;;;;;10113867;28;20483;-68
2024/03/28 14:17:36;;;;;;;0.75;0.50;;;13.70;99.90;;;;;;10089783;28;20025;-67
2024/03/28 14:22:27;;;;;;;1.23;0.20;;;14.20;99.90;;;;;;10086532;28;20033;-65
2024/03/28 14:27:17;;;;;;;1.00;0.43;;;14.60;99.90;;;;;;10098915;28;20046;-67
2024/03/28 14:32:09;;;;;;;1.10;0.40;;;15.00;99.90;;;;;;10073294;28;20498;-68
2024/03/28 14:37:00;;;;;;;1.67;0.52;;;14.80;99.90;;;;;;10068809;28;20636;-65
2024/03/28 14:41:51;;;;;;;0.80;0.40;;;14.50;99.90;;;;;;10072711;28;20413;-67
2024/03/28 14:46:41;;;;;;;0.13;0.13;;;13.90;99.90;;;;;;10100634;28;20072;-66
2024/03/28 14:51:32;;;;;;;0.90;0.47;;;13.70;99.90;;;;;;10090265;28;20140;-66
2024/03/28 14:56:23;;;;;;;1.65;0.65;;;14.50;99.90;;;;;;10077449;28;20033;-66
2024/03/28 15:01:15;;;;;;;0.63;0.38;;;15.10;99.90;;;;;;10076334;28;20040;-67
2024/03/28 15:06:06;;;;;;;0.88;0.60;;;15.50;99.90;;;;;;10072562;28;20048;-67
2024/03/28 15:11:05;;;;;;;1.15;0.38;;;16.10;99.90;;;;;;10097156;28;20017;-66
2024/03/28 15:15:56;;;;;;;0.52;0.30;;;16.60;99.90;;;;;;10104554;28;20094;-66
2024/03/28 15:20:47;;;;;;;0.63;0.35;;;16.80;99.90;;;;;;10100180;28;20025;-66
2024/03/28 15:25:37;;;;;;;1.60;0.40;;;17.00;99.90;;;;;;10087392;28;20040;-66
2024/03/28 15:30:30;;;;;;;0.50;0.30;;;16.90;99.90;;;;;;10111755;28;20043;-67
2024/03/28 15:35:22;;;;;;;1.48;0.40;;;17.10;99.90;;;;;;10114160;28;20475;-68
2024/03/28 15:40:16;;;;;;;0.60;0.40;;;16.80;99.90;;;;;;10103330;28;20028;-65
2024/03/28 15:45:07;;;;;;;1.38;0.30;;;16.90;99.90;;;;;;10100961;28;20534;-65
2024/03/28 15:49:57;;;;;;;3.38;0.60;;;16.70;99.90;;;;;;10106028;28;20025;-66
2024/03/28 15:54:48;;;;;;;3.28;0.52;;;17.10;99.90;;;;;;10097307;28;20040;-67
2024/03/28 15:59:39;;;;;;;1.20;0.40;;;17.30;99.90;;;;;;10115457;28;20016;-66
2024/03/28 16:04:33;;;;;;;1.42;0.63;;;17.30;99.90;;;;;;10103152;28;20033;-67
2024/03/28 16:09:24;;;;;;;0.90;0.50;;;17.60;99.90;;;;;;10092225;28;20178;-68
2024/03/28 16:14:14;;;;;;;0.55;0.20;;;16.90;99.90;;;;;;10096784;28;20078;-67
2024/03/28 16:19:05;;;;;;;3.90;0.40;;;16.00;99.90;;;;;;10093494;28;20187;-66
2024/03/28 16:23:56;;;;;;;1.60;0.90;;;15.40;99.90;;;;;;10098058;28;20506;-68
2024/03/28 16:28:47;;;;;;;1.30;0.60;;;15.00;99.90;;;;;;10094415;28;20152;-67
2024/03/28 16:33:37;;;;;;;1.33;0.43;;;14.80;99.90;;;;;;10085322;28;20112;-66
2024/03/28 16:38:28;;;;;;;2.30;0.47;;;14.70;99.90;;;;;;10079088;28;20037;-66
2024/03/28 16:43:19;;;;;;;1.77;0.52;;;14.70;99.90;;;;;;10090359;28;20025;-66
2024/03/28 16:48:09;;;;;;;2.28;1.55;;;14.60;99.90;;;;;;10112356;28;20032;-66
2024/03/28 16:53:00;;;;;;;4.85;1.52;;;14.60;99.90;;;;;;10105005;28;20552;-67
2024/03/28 16:57:50;;;;;;;0.88;0.43;;;14.60;99.90;;;;;;10105114;28;20048;-66
2024/03/28 17:02:41;;;;;;;2.25;0.77;;;14.60;99.90;;;;;;10105807;28;20067;-67
2024/03/28 17:07:33;;;;;;;1.00;0.80;;;15.10;99.90;;;;;;10100138;28;20135;-65
2024/03/28 17:12:24;;;;;;;3.03;1.42;;;15.60;99.90;;;;;;10088367;28;20506;-66
2024/03/28 17:17:15;;;;;;;2.40;1.15;;;15.80;99.90;;;;;;10088502;28;20065;-67
2024/03/28 17:22:06;;;;;;;4.07;1.90;;;15.50;99.90;;;;;;10103918;28;20016;-68
2024/03/28 17:26:56;;;;;;;2.63;1.17;;;15.30;99.90;;;;;;10095390;28;20155;-67
2024/03/28 17:31:47;;;;;;;5.13;1.77;;;15.10;99.90;;;;;;10093959;28;20068;-67
2024/03/28 17:36:37;;;;;;;2.97;1.58;;;15.00;99.90;;;;;;10107572;28;20044;-66
2024/03/28 17:41:28;;;;;;;1.80;1.15;;;14.90;99.90;;;;;;10097183;28;20246;-67
2024/03/28 17:46:19;;;;;;;1.42;0.88;;;14.80;99.90;;;;;;10091381;28;20130;-67
2024/03/28 17:51:09;;;;;;;2.05;0.82;;;14.60;99.90;;;;;;10099404;28;20096;-68
2024/03/28 17:56:00;;;;;;;0.80;0.60;;;14.60;99.90;;;;;;10097495;28;20418;-69
2024/03/28 18:00:51;;;;;;;1.85;0.80;;;14.60;99.90;;;;;;10094620;28;20025;-67
2024/03/28 18:05:42;;;;;;;1.63;0.80;;;14.60;99.90;;;;;;10105260;28;20086;-66
2024/03/28 18:10:32;;;;;;;2.75;0.77;;;14.50;99.90;;;;;;10105820;28;20068;-69
2024/03/28 18:15:23;;;;;;;1.67;0.82;;;14.40;99.90;;;;;;10100108;28;20037;-66
2024/03/28 18:20:14;;;;;;;3.53;0.88;;;14.40;99.90;;;;;;10098825;28;20028;-68
2024/03/28 18:25:05;;;;;;;1.13;0.82;;;14.40;99.90;;;;;;10101587;28;20067;-66
2024/03/28 18:29:55;;;;;;;4.22;1.17;;;14.30;99.90;;;;;;10112784;28;20051;-68
2024/03/28 18:34:46;;;;;;;1.48;0.82;;;14.40;99.90;;;;;;10102389;28;20399;-68
2024/03/28 18:39:37;;;;;;;3.70;1.42;;;14.30;99.90;;;;;;10100483;28;20024;-66
2024/03/28 18:44:27;;;;;;;2.75;0.90;;;14.30;99.90;;;;;;10101353;28;20052;-67
2024/03/28 18:49:18;;;;;;;3.95;1.05;;;14.30;99.90;;;;;;10098148;28;20045;-69
2024/03/28 18:54:09;;;;;;;3.25;1.20;;;14.30;99.90;;;;;;10095817;28;20503;-68
2024/03/28 18:59:00;;;;;;;5.45;1.10;;;14.30;99.90;;;;;;10111876;28;20174;-68
2024/03/28 19:03:51;;;;;;;3.63;1.35;;;14.30;99.90;;;;;;10115310;28;20024;-68
2024/03/28 19:08:43;;;;;;;2.53;1.23;;;14.20;99.90;;;;;;10102724;28;20037;-67
2024/03/28 19:13:35;;;;;;;3.40;1.30;;;14.20;99.90;;;;;;10096560;28;20024;-68
2024/03/28 19:18:26;;;;;;;3.50;1.23;;;14.10;99.90;;;;;;10093888;28;20405;-67
2024/03/28 19:23:18;;;;;;;3.15;1.55;;;14.10;99.90;;;;;;10086145;28;20372;-68
2024/03/28 19:28:10;;;;;;;4.03;1.27;;;14.10;99.90;;;;;;10115184;28;20048;-67
2024/03/28 19:33:00;;;;;;;1.98;1.63;;;14.00;99.90;;;;;;10106639;28;20131;-70
2024/03/28 19:37:52;;;;;;;2.35;1.10;;;14.00;99.90;;;;;;10099461;28;20382;-69
2024/03/28 19:42:43;;;;;;;1.92;1.38;;;14.00;99.90;;;;;;10101140;28;20014;-68
2024/03/28 19:47:34;;;;;;;2.80;1.35;;;14.00;99.90;;;;;;10098586;28;20140;-68
2024/03/28 19:52:24;;;;;;;2.58;1.50;;;14.00;99.90;;;;;;10103158;28;20028;-69
2024/03/28 19:57:16;;;;;;;2.72;1.33;;;13.90;99.90;;;;;;10106482;28;20033;-71
2024/03/28 20:02:06;;;;;;;1.80;1.30;;;13.90;99.90;;;;;;10107680;28;20021;-69
2024/03/28 20:06:57;;;;;;;2.72;2.13;;;13.80;99.90;;;;;;10097237;28;20351;-68
2024/03/28 20:11:48;;;;;;;1.95;1.52;;;13.70;99.90;;;;;;10104503;28;20024;-67
2024/03/28 20:16:38;;;;;;;2.63;1.33;;;13.60;99.90;;;;;;10103716;28;20036;-68
2024/03/28 20:21:29;;;;;;;4.05;1.38;;;13.60;99.90;;;;;;10103475;28;20032;-68
2024/03/28 20:26:20;;;;;;;2.30;1.27;;;13.60;99.90;;;;;;10108686;28;20041;-68
2024/03/28 20:31:10;;;;;;;3.17;1.15;;;13.60;99.90;;;;;;10104210;28;20996;-69
2024/03/28 20:36:01;;;;;;;2.72;1.33;;;13.60;99.90;;;;;;10095777;28;20025;-67
2024/03/28 20:40:52;;;;;;;2.95;1.30;;;13.50;99.90;;;;;;10107335;28;20559;-68
2024/03/28 20:45:43;;;;;;;2.85;1.33;;;13.40;99.90;;;;;;10100909;28;20033;-68
2024/03/28 20:50:37;;;;;;;3.13;1.20;;;13.40;99.90;;;;;;10111764;28;20029;-68
2024/03/28 20:55:28;;;;;;;3.67;1.30;;;13.50;99.90;;;;;;10112860;28;20523;-68
2024/03/28 21:00:19;;;;;;;2.10;1.13;;;13.40;99.90;;;;;;10106272;28;20685;-69
2024/03/28 21:05:10;;;;;;;2.90;1.42;;;13.40;99.90;;;;;;10101725;28;20158;-69
2024/03/28 21:15:11;;;;;;;1.45;0.93;;;13.30;99.90;;;;;;10100827;28;20113;-68
2024/03/28 21:20:01;;;;;;;4.90;1.90;;;13.30;99.90;;;;;;10099309;28;20441;-68
2024/03/28 21:24:52;;;;;;;3.60;1.15;;;13.30;99.90;;;;;;10099026;28;20045;-70
2024/03/28 21:29:43;;;;;;;3.00;1.17;;;13.30;99.90;;;;;;10093814;28;20041;-68
2024/03/28 21:34:34;;;;;;;5.10;1.73;;;13.40;99.90;;;;;;10099654;28;20037;-68
2024/03/28 21:39:25;;;;;;;0.60;0.55;;;13.40;99.90;;;;;;10097545;28;20943;-69
2024/03/28 21:44:16;;;;;;;2.15;1.10;;;13.40;99.90;;;;;;10103903;28;20094;-69
2024/03/28 21:49:08;;;;;;;1.63;0.80;;;13.40;99.90;;;;;;10109044;28;20048;-68
2024/03/28 21:54:00;;;;;;;3.53;1.23;;;13.40;99.90;;;;;;10110995;28;20037;-68
2024/03/28 21:58:50;;;;;;;1.42;0.95;;;13.40;99.90;;;;;;10102447;28;20032;-69
2024/03/28 22:03:41;;;;;;;2.80;0.82;;;13.40;99.90;;;;;;10106776;28;20512;-69
2024/03/28 22:08:37;;;;;;;3.53;1.27;;;13.30;99.90;;;;;;10099225;28;20048;-69
2024/03/28 22:13:28;;;;;;;2.08;1.23;;;13.30;99.90;;;;;;10093311;28;20104;-69
2024/03/28 22:18:19;;;;;;;2.05;1.00;;;13.20;99.90;;;;;;10111651;28;20530;-71
2024/03/28 22:23:10;;;;;;;3.28;1.23;;;13.10;99.90;;;;;;10092358;28;20025;-70
2024/03/28 22:28:01;;;;;;;3.17;0.90;;;13.10;99.90;;;;;;10102596;28;20072;-70
2024/03/28 22:32:54;;;;;;;2.33;0.95;;;13.10;99.90;;;;;;10097336;28;20451;-71
2024/03/28 22:37:45;;;;;;;3.83;1.40;;;13.00;99.90;;;;;;10097680;28;20029;-71
2024/03/28 22:42:37;;;;;;;3.67;1.27;;;12.90;99.90;;;;;;10112592;28;20033;-71
2024/03/28 22:47:28;;;;;;;5.15;1.30;;;12.90;99.90;;;;;;10117319;28;20091;-72
2024/03/28 22:52:19;;;;;;;1.88;1.45;;;12.80;99.90;;;;;;10116759;28;20024;-71
2024/03/28 22:57:10;;;;;;;2.40;1.42;;;12.80;99.90;;;;;;10109197;28;20094;-71
2024/03/28 23:02:01;;;;;;;4.75;1.73;;;12.80;99.90;;;;;;10096425;28;20025;-71
2024/03/28 23:06:51;;;;;;;4.22;1.15;;;12.80;99.90;;;;;;10094860;28;20486;-69
2024/03/28 23:11:42;;;;;;;2.65;1.20;;;12.80;99.90;;;;;;10093456;28;20029;-68
2024/03/28 23:16:33;;;;;;;2.88;1.35;;;12.80;99.90;;;;;;10102617;28;20459;-68
2024/03/28 23:21:24;;;;;;;2.60;1.38;;;12.80;99.90;;;;;;10104234;28;20119;-71
2024/03/28 23:26:15;;;;;;;3.03;1.38;;;12.70;99.90;;;;;;10101777;28;20799;-68
2024/03/28 23:31:06;;;;;;;4.43;1.48;;;12.70;99.90;;;;;;10101181;28;20025;-70
2024/03/28 23:35:57;;;;;;;3.47;1.42;;;12.70;99.90;;;;;;10092750;28;20537;-70
2024/03/28 23:40:50;;;;;;;5.07;1.40;;;12.60;99.90;;;;;;10109831;28;20045;-70
2024/03/28 23:45:51;;;;;;;1.77;1.20;;;12.60;99.90;;;;;;10107312;28;20021;-71
2024/03/28 23:50:42;;;;;;;2.15;1.15;;;12.60;99.90;;;;;;10103142;28;20165;-70
2024/03/28 23:55:33;;;;;;;1.70;1.23;;;12.60;99.90;;;;;;10107293;28;20036;-70
